Time;durP1;ratioP1;P1;durP2;ratioP2;P2;SDS_P1;SDS_P2;PMS_P1;PMS_P2;Temp;Humidity;BMP_temperature;BMP_pressure;BME280_temperature;BME280_humidity;BME280_pressure;Samples;Min_cycle;Max_cycle;Signal;HPM_P1;HPM_P2
2023/10/14 00:02:21;;;;;;;23.15;12.07;;;;;;;15.32;66.08;100465.28;5137254;27;20034;-84
2023/10/14 00:04:46;;;;;;;26.23;13.10;;;;;;;15.19;65.34;100436.84;5136980;27;20088;-82
2023/10/14 00:07:17;;;;;;;23.63;11.40;;;;;;;15.40;64.04;100448.75;5143890;27;20034;-81
2023/10/14 00:09:43;;;;;;;19.25;9.38;;;;;;;15.59;62.06;100457.41;5133183;27;20027;-84
2023/10/14 00:12:13;;;;;;;15.73;8.90;;;;;;;15.60;62.26;100453.69;5139492;27;20475;-84
2023/10/14 00:14:46;;;;;;;22.58;8.43;;;;;;;15.22;62.85;100425.59;5140974;27;20546;-84
2023/10/14 00:17:18;;;;;;;17.45;7.97;;;;;;;15.10;63.10;100422.97;5142734;27;20035;-82
2023/10/14 00:19:49;;;;;;;17.20;7.85;;;;;;;15.08;63.59;100408.97;5133551;27;20015;-83
2023/10/14 00:22:18;;;;;;;14.13;7.57;;;;;;;14.51;66.27;100408.88;5136330;27;20058;-82
2023/10/14 00:24:43;;;;;;;20.25;9.27;;;;;;;14.62;66.59;100408.06;5141521;27;20027;-82
2023/10/14 00:27:08;;;;;;;21.25;10.10;;;;;;;14.80;65.73;100415.94;5134509;27;20091;-84
2023/10/14 00:29:35;;;;;;;28.33;13.63;;;;;;;14.77;66.74;100432.56;5132425;27;20019;-82
2023/10/14 00:32:03;;;;;;;43.55;20.45;;;;;;;15.14;65.11;100432.19;5148930;27;20039;-85
2023/10/14 00:34:29;;;;;;;;;;;;;;;15.01;65.25;100427.09;5149441;27;20028;-82
2023/10/14 00:36:58;;;;;;;33.58;16.00;;;;;;;14.81;65.53;100393.44;5144029;27;19919;-81
2023/10/14 00:39:26;;;;;;;30.33;16.65;;;;;;;15.07;65.72;100423.44;5140001;27;20083;-82
2023/10/14 00:41:55;;;;;;;;;;;;;;;14.83;66.11;100423.53;5134470;27;20031;-82
2023/10/14 00:44:26;;;;;;;28.30;15.90;;;;;;;14.30;68.13;100421.03;5138524;27;20057;-81
2023/10/14 00:46:53;;;;;;;21.15;11.25;;;;;;;13.69;68.97;100405.19;5129682;27;20035;-82
2023/10/14 00:49:31;;;;;;;22.95;12.32;;;;;;;13.97;69.03;100425.94;5139964;27;20043;-83
2023/10/14 00:51:59;;;;;;;23.83;13.48;;;;;;;13.58;69.55;100392.56;5139207;27;20031;-81
2023/10/14 00:59:41;;;;;;;33.92;14.63;;;;;;;14.29;67.92;100412.16;5133607;27;20035;-82
2023/10/14 01:02:10;;;;;;;28.33;14.02;;;;;;;14.63;66.48;100398.97;5132737;27;20023;-87
2023/10/14 01:04:36;;;;;;;26.50;12.30;;;;;;;14.35;67.11;100389.78;5132384;27;20023;-82
2023/10/14 01:09:52;;;;;;;17.92;10.13;;;;;;;14.10;68.45;100382.00;5135613;27;20031;-82
2023/10/14 01:15:10;;;;;;;19.77;10.70;;;;;;;14.00;68.46;100398.66;5129298;27;20519;-83
2023/10/14 01:17:35;;;;;;;27.23;13.32;;;;;;;14.10;68.40;100391.88;5136600;27;20473;-82
2023/10/14 01:22:40;;;;;;;24.40;11.85;;;;;;;14.34;67.59;100390.81;5136684;27;20476;-82
2023/10/14 01:25:12;;;;;;;19.85;10.27;;;;;;;14.33;67.31;100369.59;5133866;27;20019;-86
2023/10/14 01:27:38;;;;;;;18.63;8.93;;;;;;;14.19;67.51;100356.44;5132554;27;20019;-81
2023/10/14 01:30:10;;;;;;;19.00;8.98;;;;;;;13.92;67.81;100342.72;5133859;27;20019;-81
2023/10/14 01:37:51;;;;;;;15.75;6.90;;;;;;;14.26;66.61;100381.28;5133351;27;20038;-86
2023/10/14 01:43:05;;;;;;;15.63;7.55;;;;;;;14.47;67.38;100373.66;5136523;27;20046;-82
2023/10/14 01:45:39;;;;;;;11.63;7.30;;;;;;;14.15;68.17;100378.59;5148014;27;20020;-81
2023/10/14 01:50:46;;;;;;;22.52;9.60;;;;;;;12.44;69.05;100364.66;5133250;27;20038;-82
2023/10/14 01:53:21;;;;;;;14.40;9.05;;;;;;;12.18;71.52;100397.03;5146862;27;20415;-81
2023/10/14 01:55:47;;;;;;;20.95;9.10;;;;;;;11.91;68.82;100386.59;5153150;27;20125;-82
2023/10/14 01:58:22;;;;;;;16.80;9.18;;;;;;;11.58;70.96;100397.50;5148052;27;20095;-84
2023/10/14 02:01:30;;;;;;;14.32;8.60;;;;;;;11.68;69.15;100365.78;5149264;27;20031;-81
2023/10/14 02:03:47;;;;;;;14.68;9.18;;;;;;;12.16;67.84;100378.53;5131320;27;20049;-82
2023/10/14 02:06:17;;;;;;;15.25;8.88;;;;;;;12.62;67.17;100385.19;5132154;27;20054;-81
2023/10/14 02:08:44;;;;;;;23.83;10.20;;;;;;;12.69;67.07;100360.22;5142718;27;20057;-82
2023/10/14 02:11:10;;;;;;;20.83;9.75;;;;;;;12.50;67.98;100351.41;5140071;27;20027;-85
2023/10/14 02:13:36;;;;;;;17.50;9.02;;;;;;;12.58;67.99;100386.69;5135766;27;20045;-82
2023/10/14 02:16:08;;;;;;;24.00;10.32;;;;;;;12.68;67.82;100340.66;5146250;27;20282;-81
2023/10/14 02:18:38;;;;;;;20.98;9.48;;;;;;;12.04;71.82;100349.03;5131906;27;20411;-81
2023/10/14 02:21:06;;;;;;;18.73;10.05;;;;;;;12.76;70.60;100374.34;5132491;27;20035;-82
2023/10/14 02:23:54;;;;;;;17.13;9.70;;;;;;;12.86;69.50;100361.25;5132590;27;20063;-82
2023/10/14 02:26:32;;;;;;;18.88;9.50;;;;;;;12.99;68.93;100379.78;5144849;27;20035;-85
2023/10/14 02:28:58;;;;;;;19.15;10.75;;;;;;;12.70;70.36;100359.19;5132330;27;20053;-83
2023/10/14 02:33:55;;;;;;;23.02;12.88;;;;;;;12.69;70.13;100371.75;5144089;27;20027;-81
2023/10/14 02:36:21;;;;;;;25.67;13.37;;;;;;;12.89;69.96;100389.41;5136831;27;20106;-82
2023/10/14 02:38:54;;;;;;;22.25;12.07;;;;;;;12.88;70.73;100385.09;5141208;27;20035;-81
2023/10/14 02:41:21;;;;;;;33.13;15.75;;;;;;;12.87;70.23;100362.84;5143360;27;20044;-82
2023/10/14 02:43:50;;;;;;;39.15;18.48;;;;;;;13.00;70.24;100361.88;5137221;27;20034;-81
2023/10/14 02:46:25;;;;;;;50.42;23.10;;;;;;;12.95;70.62;100351.81;5130093;27;20027;-83
2023/10/14 02:48:54;;;;;;;50.58;22.30;;;;;;;12.86;70.23;100335.28;5138177;27;20069;-83
2023/10/14 02:51:31;;;;;;;69.07;29.02;;;;;;;12.69;71.46;100355.69;5147963;27;20031;-81
2023/10/14 02:54:04;;;;;;;75.97;32.63;;;;;;;12.95;70.44;100381.28;5134140;27;20037;-83
2023/10/14 02:56:33;;;;;;;58.65;26.90;;;;;;;12.58;71.96;100351.91;5136041;27;20026;-81
2023/10/14 02:58:59;;;;;;;51.20;23.10;;;;;;;12.32;73.38;100353.06;5152144;27;20027;-81
2023/10/14 03:01:31;;;;;;;47.80;22.02;;;;;;;12.27;73.82;100352.91;5141460;27;20034;-81
2023/10/14 03:04:09;;;;;;;46.35;20.48;;;;;;;12.65;72.64;100357.19;5147448;27;20087;-83
2023/10/14 03:06:46;;;;;;;42.58;19.63;;;;;;;12.73;71.75;100367.59;5129682;27;20023;-81
2023/10/14 03:09:18;;;;;;;47.40;21.95;;;;;;;12.73;71.63;100372.94;5137967;27;20042;-85
2023/10/14 03:11:49;;;;;;;40.90;19.63;;;;;;;12.44;70.87;100332.56;5139421;27;20102;-83
2023/10/14 03:14:15;;;;;;;28.50;15.60;;;;;;;12.75;71.85;100360.16;5147500;27;20034;-82
2023/10/14 03:16:41;;;;;;;25.35;13.20;;;;;;;12.75;72.03;100344.09;5134459;27;20087;-82
2023/10/14 03:19:06;;;;;;;28.58;14.50;;;;;;;12.94;70.75;100358.25;5143366;27;20027;-82
2023/10/14 03:21:34;;;;;;;30.08;15.43;;;;;;;12.42;74.02;100377.44;5129569;27;20036;-81
2023/10/14 03:24:00;;;;;;;39.03;17.42;;;;;;;11.74;75.72;100362.22;5141091;27;20031;-82
2023/10/14 03:26:32;;;;;;;32.97;16.20;;;;;;;11.48;76.33;100357.09;5131856;27;20041;-82
2023/10/14 03:29:03;;;;;;;31.20;15.00;;;;;;;11.38;77.48;100362.94;5136487;27;20027;-82
2023/10/14 03:31:34;;;;;;;30.33;14.73;;;;;;;11.39;76.11;100340.53;5143979;27;20411;-81
2023/10/14 03:34:00;;;;;;;29.13;15.10;;;;;;;11.48;76.60;100379.28;5139485;27;20487;-81
2023/10/14 03:36:29;;;;;;;30.00;13.18;;;;;;;10.96;78.58;100338.59;5151696;27;20110;-86
2023/10/14 03:39:16;;;;;;;23.55;12.63;;;;;;;11.00;77.99;100369.16;5147230;27;20510;-81
2023/10/14 03:41:42;;;;;;;22.42;11.43;;;;;;;11.23;76.64;100356.03;5140245;27;20073;-81
2023/10/14 03:44:11;;;;;;;19.08;10.43;;;;;;;11.41;75.07;100365.19;5125618;27;20038;-81
2023/10/14 03:46:41;;;;;;;19.77;10.45;;;;;;;11.22;76.76;100358.94;5128459;28;20027;-81
2023/10/14 03:49:25;;;;;;;19.95;11.00;;;;;;;11.31;76.38;100359.50;5115387;27;20062;-82
2023/10/14 03:51:56;;;;;;;25.02;13.05;;;;;;;11.16;76.83;100383.84;5145095;27;20488;-83
2023/10/14 03:54:28;;;;;;;22.90;12.32;;;;;;;11.05;78.07;100388.81;5134094;27;20462;-81
2023/10/14 03:56:56;;;;;;;20.65;10.63;;;;;;;11.05;75.95;100361.28;5131085;27;20055;-83
2023/10/14 03:59:23;;;;;;;;;;;;;;;10.79;77.72;100381.78;5147989;27;20080;-81
2023/10/14 04:01:57;;;;;;;16.02;9.13;;;;;;;10.60;78.29;100380.00;5146825;27;19915;-82
2023/10/14 04:04:24;;;;;;;15.65;8.90;;;;;;;10.92;77.90;100378.22;5140863;27;20022;-82
2023/10/14 04:12:30;;;;;;;16.58;8.60;;;;;;;11.20;76.69;100383.19;5146715;27;20023;-81
2023/10/14 04:15:34;;;;;;;19.58;9.95;;;;;;;11.62;75.03;100372.00;5133685;27;20484;-82
2023/10/14 04:18:04;;;;;;;17.17;9.48;;;;;;;11.64;73.36;100344.00;5117539;27;20039;-83
2023/10/14 04:20:31;;;;;;;20.13;10.90;;;;;;;11.64;74.04;100378.75;5137098;27;20027;-83
2023/10/14 04:22:57;;;;;;;19.63;9.75;;;;;;;11.47;74.92;100369.66;5146626;27;20134;-82
2023/10/14 04:25:38;;;;;;;23.92;10.73;;;;;;;11.63;74.01;100374.44;5138345;27;20457;-81
2023/10/14 04:30:42;;;;;;;28.42;11.35;;;;;;;11.85;72.37;100372.22;5146844;27;20027;-81
2023/10/14 04:33:25;;;;;;;54.03;37.17;;;;;;;11.88;71.98;100373.63;5132768;27;20035;-82
2023/10/14 04:38:38;;;;;;;63.83;54.25;;;;;;;11.32;75.28;100380.66;5143979;27;20027;-81
2023/10/14 04:41:12;;;;;;;46.50;34.00;;;;;;;11.66;74.52;100383.88;5150377;27;20392;-81
2023/10/14 04:44:00;;;;;;;33.97;18.73;;;;;;;11.09;75.72;100389.19;5140551;27;20034;-84
2023/10/14 04:46:32;;;;;;;64.82;42.65;;;;;;;11.15;76.02;100388.34;5134316;27;20034;-81
2023/10/14 04:49:08;;;;;;;52.33;36.28;;;;;;;11.26;74.77;100378.84;5145811;27;20129;-83
2023/10/14 04:51:58;;;;;;;37.17;20.20;;;;;;;10.96;75.83;100383.94;5150756;27;20034;-82
2023/10/14 04:54:25;;;;;;;43.25;21.63;;;;;;;10.78;75.66;100356.09;5122529;27;20018;-83
2023/10/14 04:56:51;;;;;;;37.97;19.50;;;;;;;10.81;76.05;100376.22;5134095;27;20054;-84
2023/10/14 04:59:24;;;;;;;34.75;14.27;;;;;;;10.21;79.15;100379.06;5133551;27;20515;-82
2023/10/14 05:01:50;;;;;;;23.23;12.38;;;;;;;10.14;79.11;100364.94;5153103;27;20103;-81
2023/10/14 05:04:20;;;;;;;24.60;11.55;;;;;;;10.24;79.00;100368.00;5149155;27;20389;-82
2023/10/14 05:06:52;;;;;;;22.23;10.30;;;;;;;10.22;76.69;100383.38;5145951;27;20057;-83
2023/10/14 05:09:30;;;;;;;25.88;12.10;;;;;;;11.12;74.04;100383.44;5132274;27;20023;-83
2023/10/14 05:11:55;;;;;;;42.97;25.03;;;;;;;11.32;75.53;100403.84;5147148;27;20054;-81
2023/10/14 05:14:33;;;;;;;50.90;28.77;;;;;;;11.60;74.74;100396.25;5135058;27;20062;-82
2023/10/14 05:17:05;;;;;;;50.17;34.72;;;;;;;11.84;73.67;100377.78;5144863;27;20388;-82
2023/10/14 05:19:41;;;;;;;54.00;36.47;;;;;;;12.21;73.01;100393.91;5133461;27;20034;-84
2023/10/14 05:22:18;;;;;;;57.15;34.95;;;;;;;12.42;71.96;100372.06;5133605;27;20472;-84
2023/10/14 05:24:48;;;;;;;57.67;34.72;;;;;;;12.53;72.86;100388.41;5146152;27;20080;-83
2023/10/14 05:27:21;;;;;;;49.13;32.50;;;;;;;12.89;70.50;100400.91;5142005;27;20525;-83
2023/10/14 05:29:51;;;;;;;40.78;29.83;;;;;;;13.14;70.09;100416.88;5152519;27;20457;-86
2023/10/14 05:32:23;;;;;;;40.22;26.40;;;;;;;13.26;70.25;100401.66;5138117;27;20027;-83
2023/10/14 05:34:50;;;;;;;37.05;21.60;;;;;;;13.38;69.21;100400.91;5153216;27;20734;-83
2023/10/14 05:37:16;;;;;;;27.65;18.25;;;;;;;13.49;69.61;100405.47;5111147;28;20104;-83
2023/10/14 05:39:41;;;;;;;31.17;14.85;;;;;;;13.76;68.17;100415.78;5133726;27;20113;-83
2023/10/14 05:42:20;;;;;;;27.15;13.30;;;;;;;13.65;67.52;100431.63;5147285;27;20041;-82
2023/10/14 05:44:54;;;;;;;26.95;13.35;;;;;;;13.83;68.58;100430.72;5135812;27;20117;-82
2023/10/14 05:47:27;;;;;;;25.83;12.40;;;;;;;13.91;66.42;100400.03;5132001;27;20031;-82
2023/10/14 05:49:52;;;;;;;18.65;11.95;;;;;;;14.30;65.72;100435.25;5131394;27;20051;-83
2023/10/14 05:52:21;;;;;;;21.52;12.90;;;;;;;14.22;66.54;100406.09;5131258;27;20023;-84
2023/10/14 05:54:50;;;;;;;21.15;12.18;;;;;;;14.34;67.03;100428.38;5132954;27;20023;-82
2023/10/14 05:57:18;;;;;;;23.60;13.25;;;;;;;14.16;67.51;100391.78;5133906;27;20023;-82
2023/10/14 05:59:43;;;;;;;;;;;;;;;14.33;66.66;100429.44;5131764;27;20116;-82
2023/10/14 06:02:12;;;;;;;18.58;12.10;;;;;;;14.33;66.15;100407.97;5132238;27;20707;-82
2023/10/14 06:04:42;;;;;;;21.38;13.32;;;;;;;14.58;66.39;100406.91;5132146;27;20115;-83
2023/10/14 06:07:08;;;;;;;21.27;11.40;;;;;;;14.91;65.83;100426.91;5143038;27;20071;-84
2023/10/14 06:09:36;;;;;;;24.17;11.73;;;;;;;15.18;63.86;100424.44;5131625;27;20027;-82
2023/10/14 06:12:06;;;;;;;25.30;12.40;;;;;;;16.15;73.60;100430.66;5131713;27;20137;-82
2023/10/14 06:14:32;;;;;;;23.73;13.27;;;;;;;16.54;66.63;100415.31;5141241;27;20031;-82
2023/10/14 06:16:59;;;;;;;20.88;11.75;;;;;;;16.92;66.49;100418.19;5142936;27;20471;-85
2023/10/14 06:19:25;;;;;;;24.45;13.05;;;;;;;17.14;65.69;100413.63;5130364;27;20610;-84
2023/10/14 06:21:50;;;;;;;19.38;10.35;;;;;;;17.09;60.61;100420.84;5131255;27;20031;-83
2023/10/14 06:24:16;;;;;;;21.85;11.30;;;;;;;16.85;64.21;100405.75;5129244;27;20031;-82
2023/10/14 06:26:41;;;;;;;17.63;9.93;;;;;;;16.64;61.92;100410.06;5130125;27;20035;-82
2023/10/14 06:29:09;;;;;;;18.98;9.40;;;;;;;16.63;58.94;100415.69;5133574;27;20054;-83
2023/10/14 06:31:37;;;;;;;;;;;;;;;16.91;64.04;100430.06;5128195;27;20117;-85
2023/10/14 06:34:09;;;;;;;17.08;8.85;;;;;;;17.19;62.75;100431.72;5133023;27;19915;-80
2023/10/14 06:36:37;;;;;;;14.48;9.45;;;;;;;17.02;61.06;100421.00;5133994;27;20122;-80
2023/10/14 06:39:15;;;;;;;22.52;12.02;;;;;;;17.23;61.41;100385.13;5121066;27;20019;-80
2023/10/14 06:41:43;;;;;;;17.23;10.13;;;;;;;17.82;59.49;100430.13;5112747;27;20050;-81
2023/10/14 06:44:17;;;;;;;24.20;9.75;;;;;;;17.55;56.86;100397.84;5148248;27;20049;-81
2023/10/14 06:46:45;;;;;;;21.25;9.45;;;;;;;17.61;56.81;100414.84;5138071;27;20121;-80
2023/10/14 06:49:13;;;;;;;16.73;8.60;;;;;;;17.83;54.97;100428.28;5150553;27;20038;-81
2023/10/14 06:51:42;;;;;;;18.33;8.85;;;;;;;17.51;57.15;100399.41;5130840;27;20037;-82
2023/10/14 06:54:13;;;;;;;20.30;9.35;;;;;;;17.82;55.13;100399.66;5138960;27;20031;-80
2023/10/14 06:56:40;;;;;;;15.63;9.15;;;;;;;18.10;53.78;100417.41;5129957;27;20023;-80
2023/10/14 06:59:06;;;;;;;18.23;9.52;;;;;;;18.26;54.90;100424.50;5130236;27;20654;-80
2023/10/14 07:01:34;;;;;;;15.50;8.20;;;;;;;18.19;54.59;100401.53;5130098;27;20053;-81
2023/10/14 07:04:00;;;;;;;15.80;7.45;;;;;;;18.32;53.00;100406.47;5135264;27;20023;-82
2023/10/14 07:06:27;;;;;;;15.13;6.82;;;;;;;18.60;53.57;100420.66;5148371;27;20034;-81
2023/10/14 07:08:52;;;;;;;13.48;6.70;;;;;;;18.38;51.41;100383.81;5140656;27;20026;-81
2023/10/14 07:11:18;;;;;;;12.88;6.65;;;;;;;18.74;51.76;100402.88;5130178;27;20034;-81
2023/10/14 07:13:46;;;;;;;13.57;6.13;;;;;;;18.75;51.17;100393.69;5135313;27;20084;-79
2023/10/14 07:16:11;;;;;;;13.20;6.20;;;;;;;18.90;49.88;100413.75;5129835;27;20420;-80
2023/10/14 07:18:37;;;;;;;11.43;6.80;;;;;;;18.81;50.89;100387.25;5137670;27;20087;-82
2023/10/14 07:21:03;;;;;;;15.85;6.18;;;;;;;18.90;51.01;100397.53;5152251;27;20023;-81
2023/10/14 07:23:34;;;;;;;13.07;6.20;;;;;;;19.16;49.41;100415.44;5151930;27;20791;-80
2023/10/14 07:26:06;;;;;;;12.75;6.43;;;;;;;19.15;48.64;100389.50;5138046;27;20030;-80
2023/10/14 07:28:32;;;;;;;17.17;6.25;;;;;;;19.07;49.04;100379.22;5120833;27;20117;-82
2023/10/14 07:30:57;;;;;;;12.15;6.05;;;;;;;19.50;49.19;100396.03;5143099;27;20121;-81
2023/10/14 07:33:24;;;;;;;16.77;6.15;;;;;;;19.83;47.42;100404.69;5133982;27;20475;-82
2023/10/14 07:35:52;;;;;;;13.27;5.63;;;;;;;19.91;48.29;100404.16;5131498;27;20031;-82
2023/10/14 07:38:20;;;;;;;13.20;5.35;;;;;;;20.05;47.32;100405.19;5143433;27;20054;-83
2023/10/14 07:40:46;;;;;;;12.55;5.57;;;;;;;20.09;45.56;100399.25;5131833;27;20895;-81
2023/10/14 07:43:11;;;;;;;22.70;5.88;;;;;;;19.97;45.76;100396.84;5131493;27;20055;-80
2023/10/14 07:45:42;;;;;;;14.68;5.38;;;;;;;20.06;47.91;100384.34;5132102;27;20516;-85
2023/10/14 07:48:09;;;;;;;10.45;5.40;;;;;;;20.16;46.81;100378.09;5129766;28;20047;-84
2023/10/14 07:50:43;;;;;;;18.15;6.95;;;;;;;20.27;47.62;100406.78;5151564;27;20026;-81
2023/10/14 07:53:13;;;;;;;20.35;5.82;;;;;;;20.14;48.46;100382.97;5144536;27;20023;-82
2023/10/14 07:55:43;;;;;;;19.38;5.63;;;;;;;20.56;46.89;100379.06;5131407;28;20168;-80
2023/10/14 07:58:10;;;;;;;17.98;6.03;;;;;;;20.74;47.17;100389.31;5143484;27;20027;-80
2023/10/14 08:00:48;;;;;;;16.98;6.20;;;;;;;20.62;45.19;100338.13;5152808;27;20030;-81
2023/10/14 08:03:16;;;;;;;21.70;8.13;;;;;;;21.20;45.81;100386.28;5144094;27;20035;-84
2023/10/14 08:05:44;;;;;;;14.43;5.43;;;;;;;21.30;44.33;100379.19;5137872;27;20022;-80
2023/10/14 08:08:10;;;;;;;;;;;;;;;21.87;41.44;100393.94;5140516;27;20031;-81
2023/10/14 08:10:43;;;;;;;15.43;4.93;;;;;;;21.74;42.30;100395.41;5147565;27;19910;-81
2023/10/14 08:13:12;;;;;;;14.35;5.13;;;;;;;21.85;43.44;100385.25;5154688;27;20555;-81
2023/10/14 08:15:38;;;;;;;11.55;4.97;;;;;;;21.86;41.09;100370.56;5142822;27;20086;-85
2023/10/14 08:18:04;;;;;;;17.98;5.32;;;;;;;22.16;40.93;100384.94;5149721;27;20027;-81
2023/10/14 08:20:34;;;;;;;11.55;5.05;;;;;;;22.20;40.77;100370.50;5136091;27;20027;-83
2023/10/14 08:23:00;;;;;;;15.40;4.97;;;;;;;22.56;41.38;100385.59;5138746;27;20108;-81
2023/10/14 08:25:28;;;;;;;13.48;4.93;;;;;;;22.64;41.28;100384.97;5153561;27;20042;-84
2023/10/14 08:27:53;;;;;;;;;;;;;;;22.79;40.33;100373.06;5151926;27;20480;-82
2023/10/14 08:30:25;;;;;;;10.20;4.80;;;;;;;22.78;40.27;100347.78;5135544;28;19909;-82
2023/10/14 08:32:52;;;;;;;12.48;5.82;;;;;;;23.24;39.37;100359.91;5136233;27;20702;-82
2023/10/14 08:35:19;;;;;;;14.43;6.25;;;;;;;23.08;40.07;100343.03;5139792;27;20027;-87
2023/10/14 08:37:48;;;;;;;10.20;5.70;;;;;;;23.18;40.37;100361.91;5157912;27;20042;-85
2023/10/14 08:40:19;;;;;;;12.98;5.75;;;;;;;23.41;39.92;100351.19;5151890;27;20031;-85
2023/10/14 08:43:02;;;;;;;14.52;10.25;;;;;;;23.66;39.25;100366.31;5141401;27;20015;-84
2023/10/14 08:45:28;;;;;;;13.52;6.50;;;;;;;23.50;38.59;100357.59;5154282;27;20022;-85
2023/10/14 08:47:58;;;;;;;18.33;7.88;;;;;;;23.40;39.09;100363.22;5140338;27;20023;-83
2023/10/14 08:50:24;;;;;;;11.60;6.32;;;;;;;23.76;38.18;100365.28;5141580;27;20039;-86
2023/10/14 08:52:53;;;;;;;17.70;8.63;;;;;;;23.71;38.36;100351.78;5157341;27;20436;-83
2023/10/14 08:55:20;;;;;;;11.60;5.97;;;;;;;24.36;36.22;100356.28;5160341;27;20041;-83
2023/10/14 08:57:46;;;;;;;13.20;6.70;;;;;;;23.86;37.46;100329.72;5146589;27;20412;-82
2023/10/14 09:00:23;;;;;;;19.85;8.63;;;;;;;24.11;38.48;100333.91;5142815;27;20038;-83
2023/10/14 09:02:53;;;;;;;13.98;7.60;;;;;;;24.41;37.06;100335.16;5139051;27;20472;-84
2023/10/14 09:05:20;;;;;;;15.38;9.18;;;;;;;24.51;36.88;100336.91;5137167;27;20039;-85
2023/10/14 09:07:49;;;;;;;16.75;8.43;;;;;;;23.97;37.01;100324.91;5137707;27;20034;-82
2023/10/14 09:10:18;;;;;;;16.73;7.18;;;;;;;23.79;38.02;100332.06;5149772;27;20111;-82
2023/10/14 09:12:58;;;;;;;13.50;5.85;;;;;;;24.71;37.36;100334.84;5138235;27;20023;-84
2023/10/14 09:15:28;;;;;;;14.07;6.80;;;;;;;24.45;36.15;100303.47;5135155;27;20035;-85
2023/10/14 09:17:58;;;;;;;13.40;6.20;;;;;;;24.62;36.69;100315.66;5149193;27;20023;-84
2023/10/14 09:20:38;;;;;;;10.93;6.15;;;;;;;25.12;37.13;100315.59;5133813;27;20038;-82
2023/10/14 09:23:10;;;;;;;11.00;5.93;;;;;;;24.94;35.93;100311.13;5133756;27;20026;-82
2023/10/14 09:25:49;;;;;;;10.65;5.72;;;;;;;24.74;36.55;100291.38;5138363;27;20099;-82
2023/10/14 09:28:20;;;;;;;9.10;4.97;;;;;;;24.90;36.12;100304.69;5135642;27;20023;-85
2023/10/14 09:30:49;;;;;;;11.55;5.65;;;;;;;24.43;36.67;100278.44;5146460;27;20055;-81
2023/10/14 09:33:17;;;;;;;13.98;5.78;;;;;;;24.88;36.44;100282.38;5145497;27;20023;-82
2023/10/14 09:35:50;;;;;;;12.02;5.28;;;;;;;24.91;36.00;100276.28;5149707;27;20385;-83
2023/10/14 09:38:24;;;;;;;11.07;5.78;;;;;;;25.05;36.97;100279.78;5136595;27;20623;-81
2023/10/14 09:40:54;;;;;;;13.98;6.45;;;;;;;25.30;35.84;100291.19;5134500;27;20035;-84
2023/10/14 09:43:23;;;;;;;10.52;5.75;;;;;;;25.15;36.97;100273.22;5144969;27;20030;-85
2023/10/14 09:45:57;;;;;;;12.02;6.10;;;;;;;25.28;35.31;100236.13;5139480;27;20063;-82
2023/10/14 09:48:27;;;;;;;15.23;5.70;;;;;;;25.36;35.63;100240.81;5135108;27;20236;-83
2023/10/14 09:51:00;;;;;;;11.85;5.85;;;;;;;25.85;34.73;100261.56;5145588;27;20054;-83
2023/10/14 09:53:28;;;;;;;10.68;5.75;;;;;;;25.57;35.53;100241.84;5131758;27;20045;-81
2023/10/14 09:55:55;;;;;;;;;;;;;;;25.81;34.91;100254.31;5133662;27;20024;-83
2023/10/14 09:58:22;;;;;;;;;;;;;;;26.09;34.67;100249.41;5136457;27;19911;-81
2023/10/14 10:00:49;;;;;;;12.37;6.30;;;;;;;25.75;36.41;100231.81;5136725;27;20718;-81
2023/10/14 10:03:15;;;;;;;11.40;5.70;;;;;;;26.04;34.01;100220.31;5138234;27;20275;-82
2023/10/14 10:06:03;;;;;;;7.95;4.88;;;;;;;26.04;34.12;100233.97;5153935;27;20031;-82
2023/10/14 10:09:09;;;;;;;10.23;4.30;;;;;;;25.71;34.38;100235.50;5140122;27;20079;-81
2023/10/14 10:11:36;;;;;;;8.80;4.93;;;;;;;26.15;34.75;100211.81;5112570;28;20102;-81
2023/10/14 10:14:12;;;;;;;11.70;4.22;;;;;;;26.20;33.51;100225.34;5138220;27;20126;-84
2023/10/14 10:16:41;;;;;;;8.55;4.15;;;;;;;26.21;33.21;100218.72;5148466;27;20510;-82
2023/10/14 10:19:08;;;;;;;10.95;4.07;;;;;;;26.12;32.78;100196.88;5154035;27;20027;-81
2023/10/14 10:21:43;;;;;;;8.73;4.53;;;;;;;25.91;33.11;100207.63;5129583;27;20510;-82
2023/10/14 10:24:23;;;;;;;10.50;4.68;;;;;;;26.65;33.96;100194.97;5141509;27;20115;-83
2023/10/14 10:27:04;;;;;;;13.02;4.50;;;;;;;26.94;31.58;100204.41;5131572;27;20059;-82
2023/10/14 10:29:33;;;;;;;9.50;4.20;;;;;;;27.15;31.28;100177.13;5151261;27;20086;-82
2023/10/14 10:32:09;;;;;;;8.27;4.05;;;;;;;27.24;31.18;100192.44;5142697;27;21107;-82
2023/10/14 10:35:06;;;;;;;10.57;4.65;;;;;;;27.47;31.08;100186.69;5152159;27;20027;-85
2023/10/14 10:38:01;;;;;;;;;;;;;;;27.01;30.62;100193.75;5147318;27;20057;-84
2023/10/14 10:40:27;;;;;;;8.25;3.90;;;;;;;27.46;31.04;100157.69;5120492;27;20333;-85
2023/10/14 10:43:09;;;;;;;12.23;4.00;;;;;;;27.82;30.61;100165.38;5137115;27;20515;-85
2023/10/14 10:45:37;;;;;;;10.50;4.10;;;;;;;27.52;30.37;100153.63;5121363;27;20861;-83
2023/10/14 10:48:15;;;;;;;12.15;4.45;;;;;;;27.17;30.80;100131.84;5130400;27;20095;-81
2023/10/14 10:50:42;;;;;;;13.07;4.63;;;;;;;27.67;30.92;100159.69;5144466;27;20483;-81
2023/10/14 10:53:07;;;;;;;7.57;4.15;;;;;;;27.93;30.62;100143.91;5152008;27;20037;-81
2023/10/14 10:55:39;;;;;;;9.88;4.15;;;;;;;28.20;30.07;100133.53;5115739;27;20027;-83
2023/10/14 10:58:07;;;;;;;13.98;4.18;;;;;;;27.99;29.51;100131.59;5148291;27;20027;-80
2023/10/14 11:00:33;;;;;;;9.73;4.00;;;;;;;27.65;29.89;100124.41;5141487;27;20034;-79
2023/10/14 11:03:00;;;;;;;9.45;3.90;;;;;;;28.47;28.99;100117.63;5131137;27;20031;-83
2023/10/14 11:05:26;;;;;;;16.90;6.75;;;;;;;28.44;29.35;100116.34;5147434;27;20060;-82
2023/10/14 11:07:53;;;;;;;10.95;5.32;;;;;;;28.14;28.82;100112.94;5131800;27;20061;-81
2023/10/14 11:10:42;;;;;;;15.25;5.03;;;;;;;28.40;29.37;100105.25;5144298;27;20023;-80
2023/10/14 11:13:12;;;;;;;8.02;3.45;;;;;;;28.11;28.77;100100.69;5146440;27;20038;-83
2023/10/14 11:15:40;;;;;;;8.80;3.72;;;;;;;27.99;29.29;100095.97;5133108;27;20031;-84
2023/10/14 11:18:09;;;;;;;9.02;4.15;;;;;;;27.80;29.55;100090.91;5148648;27;20480;-79
2023/10/14 11:20:45;;;;;;;8.55;3.65;;;;;;;28.14;29.24;100096.50;5146638;27;20102;-82
2023/10/14 11:23:12;;;;;;;7.95;3.78;;;;;;;27.67;29.73;100093.94;5131414;27;20118;-80
2023/10/14 11:25:41;;;;;;;10.40;3.88;;;;;;;28.38;28.37;100093.84;5130917;27;20034;-80
2023/10/14 11:28:09;;;;;;;10.73;3.38;;;;;;;28.44;28.50;100089.75;5146506;27;20066;-79
2023/10/14 11:30:42;;;;;;;8.65;3.75;;;;;;;28.53;27.95;100080.66;5133877;27;20030;-80
2023/10/14 11:33:13;;;;;;;13.02;3.85;;;;;;;28.45;27.94;100082.31;5130945;27;20559;-83
2023/10/14 11:35:41;;;;;;;9.05;3.45;;;;;;;28.34;28.36;100056.44;5145630;27;20035;-80
2023/10/14 11:38:12;;;;;;;7.20;3.22;;;;;;;28.45;28.46;100069.38;5131969;27;20038;-80
2023/10/14 11:40:40;;;;;;;11.07;3.88;;;;;;;28.74;27.99;100042.94;5133533;27;20510;-80
2023/10/14 11:43:09;;;;;;;7.95;3.80;;;;;;;29.54;27.76;100040.72;5151607;27;20027;-80
2023/10/14 11:45:40;;;;;;;8.23;3.42;;;;;;;29.57;26.79;100049.06;5136765;27;20396;-82
2023/10/14 11:48:06;;;;;;;9.57;4.18;;;;;;;29.62;27.28;100046.06;5134181;27;20047;-79
2023/10/14 11:50:34;;;;;;;10.07;4.15;;;;;;;29.57;26.86;100046.31;5136938;27;20080;-79
2023/10/14 11:52:59;;;;;;;7.18;3.90;;;;;;;30.16;26.13;100041.31;5127390;27;20062;-80
2023/10/14 11:55:30;;;;;;;9.77;3.40;;;;;;;29.57;26.93;100040.84;5138794;27;20148;-80
2023/10/14 11:57:56;;;;;;;10.88;3.85;;;;;;;29.65;27.02;100028.91;5144063;27;20023;-83
2023/10/14 12:00:21;;;;;;;11.35;3.78;;;;;;;29.78;26.57;100034.38;5136750;27;20031;-81
2023/10/14 12:02:48;;;;;;;9.77;3.75;;;;;;;29.33;27.81;100029.91;5139910;27;20031;-80
2023/10/14 12:05:16;;;;;;;9.23;4.03;;;;;;;28.78;27.86;99999.94;5141601;27;20031;-81
2023/10/14 12:07:47;;;;;;;9.85;3.80;;;;;;;29.29;27.48;100007.03;5133563;27;20058;-80
2023/10/14 12:10:12;;;;;;;7.43;3.50;;;;;;;30.03;26.12;100019.38;5128639;27;20052;-80